sensor_id;sensor_type;location;lat;lon;timestamp;P1;durP1;ratioP1;P2;durP2;ratioP2
25525;SDS011;13424;48.424;11.258;2022-07-29T00:01:00;8.40;;;5.28;;
25525;SDS011;13424;48.424;11.258;2022-07-29T00:03:26;5.40;;;4.68;;
25525;SDS011;13424;48.424;11.258;2022-07-29T00:05:52;5.18;;;4.32;;
25525;SDS011;13424;48.424;11.258;2022-07-29T00:08:18;5.15;;;4.60;;
25525;SDS011;13424;48.424;11.258;2022-07-29T00:10:57;4.85;;;4.32;;
25525;SDS011;13424;48.424;11.258;2022-07-29T00:13:23;4.30;;;3.90;;
25525;SDS011;13424;48.424;11.258;2022-07-29T00:15:49;5.35;;;4.63;;
25525;SDS011;13424;48.424;11.258;2022-07-29T00:18:15;11.18;;;5.35;;
25525;SDS011;13424;48.424;11.258;2022-07-29T00:20:41;7.50;;;4.35;;
25525;SDS011;13424;48.424;11.258;2022-07-29T00:23:07;4.43;;;4.03;;
25525;SDS011;13424;48.424;11.258;2022-07-29T00:25:33;5.47;;;4.30;;
25525;SDS011;13424;48.424;11.258;2022-07-29T00:27:59;4.97;;;4.20;;
25525;SDS011;13424;48.424;11.258;2022-07-29T00:30:25;5.85;;;4.53;;
25525;SDS011;13424;48.424;11.258;2022-07-29T00:32:51;6.00;;;4.70;;
25525;SDS011;13424;48.424;11.258;2022-07-29T00:35:16;5.47;;;4.55;;
25525;SDS011;13424;48.424;11.258;2022-07-29T00:38:01;5.82;;;4.70;;
25525;SDS011;13424;48.424;11.258;2022-07-29T00:40:27;5.50;;;4.93;;
25525;SDS011;13424;48.424;11.258;2022-07-29T00:43:21;4.68;;;4.18;;
25525;SDS011;13424;48.424;11.258;2022-07-29T00:45:47;7.00;;;5.18;;
25525;SDS011;13424;48.424;11.258;2022-07-29T00:48:13;5.80;;;5.15;;
25525;SDS011;13424;48.424;11.258;2022-07-29T00:50:39;7.22;;;5.05;;
25525;SDS011;13424;48.424;11.258;2022-07-29T00:53:06;9.88;;;5.65;;
25525;SDS011;13424;48.424;11.258;2022-07-29T00:55:33;5.88;;;4.90;;
25525;SDS011;13424;48.424;11.258;2022-07-29T00:58:00;8.40;;;5.00;;
25525;SDS011;13424;48.424;11.258;2022-07-29T01:00:28;5.50;;;5.00;;
25525;SDS011;13424;48.424;11.258;2022-07-29T01:02:55;5.55;;;4.75;;
25525;SDS011;13424;48.424;11.258;2022-07-29T01:05:23;5.85;;;5.13;;
25525;SDS011;13424;48.424;11.258;2022-07-29T01:07:53;7.70;;;5.73;;
25525;SDS011;13424;48.424;11.258;2022-07-29T01:10:20;6.10;;;5.28;;
25525;SDS011;13424;48.424;11.258;2022-07-29T01:12:49;6.68;;;4.40;;
25525;SDS011;13424;48.424;11.258;2022-07-29T01:15:18;7.45;;;5.22;;
25525;SDS011;13424;48.424;11.258;2022-07-29T01:18:11;5.80;;;5.00;;
25525;SDS011;13424;48.424;11.258;2022-07-29T01:29:35;6.90;;;4.72;;
25525;SDS011;13424;48.424;11.258;2022-07-29T01:32:19;6.95;;;5.63;;
25525;SDS011;13424;48.424;11.258;2022-07-29T01:37:45;6.50;;;5.43;;
25525;SDS011;13424;48.424;11.258;2022-07-29T01:43:17;8.27;;;4.97;;
25525;SDS011;13424;48.424;11.258;2022-07-29T01:45:57;6.25;;;4.55;;
25525;SDS011;13424;48.424;11.258;2022-07-29T01:48:48;6.55;;;4.85;;
25525;SDS011;13424;48.424;11.258;2022-07-29T01:51:35;5.95;;;4.45;;
25525;SDS011;13424;48.424;11.258;2022-07-29T01:54:24;5.50;;;4.28;;
25525;SDS011;13424;48.424;11.258;2022-07-29T01:57:15;4.68;;;4.22;;
25525;SDS011;13424;48.424;11.258;2022-07-29T01:59:47;7.85;;;4.43;;
25525;SDS011;13424;48.424;11.258;2022-07-29T02:02:16;5.32;;;4.47;;
25525;SDS011;13424;48.424;11.258;2022-07-29T02:04:45;4.97;;;4.22;;
25525;SDS011;13424;48.424;11.258;2022-07-29T02:07:17;4.90;;;3.92;;
25525;SDS011;13424;48.424;11.258;2022-07-29T02:09:47;4.45;;;3.90;;
25525;SDS011;13424;48.424;11.258;2022-07-29T02:12:17;5.10;;;4.60;;
25525;SDS011;13424;48.424;11.258;2022-07-29T02:14:47;6.03;;;3.97;;
25525;SDS011;13424;48.424;11.258;2022-07-29T02:17:23;4.75;;;3.83;;
25525;SDS011;13424;48.424;11.258;2022-07-29T02:20:02;4.07;;;3.70;;
25525;SDS011;13424;48.424;11.258;2022-07-29T02:22:31;4.22;;;3.78;;
25525;SDS011;13424;48.424;11.258;2022-07-29T02:25:00;3.85;;;3.40;;
25525;SDS011;13424;48.424;11.258;2022-07-29T02:27:26;4.53;;;4.10;;
25525;SDS011;13424;48.424;11.258;2022-07-29T02:29:54;4.38;;;3.83;;
25525;SDS011;13424;48.424;11.258;2022-07-29T02:32:24;7.13;;;4.25;;
25525;SDS011;13424;48.424;11.258;2022-07-29T02:34:52;4.47;;;4.07;;
25525;SDS011;13424;48.424;11.258;2022-07-29T02:37:19;5.57;;;4.13;;
25525;SDS011;13424;48.424;11.258;2022-07-29T02:39:46;5.82;;;4.07;;
25525;SDS011;13424;48.424;11.258;2022-07-29T02:42:17;4.15;;;3.75;;
25525;SDS011;13424;48.424;11.258;2022-07-29T02:44:46;6.82;;;3.88;;
25525;SDS011;13424;48.424;11.258;2022-07-29T02:47:18;4.07;;;3.65;;
25525;SDS011;13424;48.424;11.258;2022-07-29T02:50:15;4.68;;;4.25;;
25525;SDS011;13424;48.424;11.258;2022-07-29T02:55:46;4.22;;;3.63;;
25525;SDS011;13424;48.424;11.258;2022-07-29T02:58:45;5.00;;;4.50;;
25525;SDS011;13424;48.424;11.258;2022-07-29T03:01:21;5.43;;;3.90;;
25525;SDS011;13424;48.424;11.258;2022-07-29T03:09:52;4.65;;;4.05;;
25525;SDS011;13424;48.424;11.258;2022-07-29T03:12:18;5.30;;;4.70;;
25525;SDS011;13424;48.424;11.258;2022-07-29T03:14:45;5.32;;;4.47;;
25525;SDS011;13424;48.424;11.258;2022-07-29T03:17:12;4.82;;;4.43;;
25525;SDS011;13424;48.424;11.258;2022-07-29T03:19:39;5.32;;;4.82;;
25525;SDS011;13424;48.424;11.258;2022-07-29T03:22:05;5.95;;;4.60;;
25525;SDS011;13424;48.424;11.258;2022-07-29T03:24:34;4.82;;;4.43;;
25525;SDS011;13424;48.424;11.258;2022-07-29T03:27:03;5.80;;;4.57;;
25525;SDS011;13424;48.424;11.258;2022-07-29T03:29:30;6.57;;;3.85;;
25525;SDS011;13424;48.424;11.258;2022-07-29T03:31:57;5.68;;;4.80;;
25525;SDS011;13424;48.424;11.258;2022-07-29T03:34:23;4.72;;;4.25;;
25525;SDS011;13424;48.424;11.258;2022-07-29T03:36:49;4.82;;;4.40;;
25525;SDS011;13424;48.424;11.258;2022-07-29T03:39:19;6.10;;;4.15;;
25525;SDS011;13424;48.424;11.258;2022-07-29T03:41:52;5.97;;;4.22;;
25525;SDS011;13424;48.424;11.258;2022-07-29T03:44:22;5.38;;;4.38;;
25525;SDS011;13424;48.424;11.258;2022-07-29T03:46:51;4.60;;;4.20;;
25525;SDS011;13424;48.424;11.258;2022-07-29T03:49:19;5.88;;;4.68;;
25525;SDS011;13424;48.424;11.258;2022-07-29T03:51:46;5.30;;;4.32;;
25525;SDS011;13424;48.424;11.258;2022-07-29T03:54:13;5.28;;;4.78;;
25525;SDS011;13424;48.424;11.258;2022-07-29T03:56:42;8.30;;;5.30;;
25525;SDS011;13424;48.424;11.258;2022-07-29T03:59:13;8.20;;;4.50;;
25525;SDS011;13424;48.424;11.258;2022-07-29T04:01:40;7.68;;;4.95;;
25525;SDS011;13424;48.424;11.258;2022-07-29T04:04:07;5.97;;;3.92;;
25525;SDS011;13424;48.424;11.258;2022-07-29T04:06:40;4.03;;;3.63;;
25525;SDS011;13424;48.424;11.258;2022-07-29T04:09:08;4.85;;;3.45;;
25525;SDS011;13424;48.424;11.258;2022-07-29T04:11:37;6.28;;;3.95;;
25525;SDS011;13424;48.424;11.258;2022-07-29T04:14:05;3.90;;;3.50;;
25525;SDS011;13424;48.424;11.258;2022-07-29T04:16:31;6.07;;;3.00;;
25525;SDS011;13424;48.424;11.258;2022-07-29T04:18:57;3.67;;;2.92;;
25525;SDS011;13424;48.424;11.258;2022-07-29T04:25:49;4.60;;;4.00;;
25525;SDS011;13424;48.424;11.258;2022-07-29T04:28:15;3.17;;;2.88;;
25525;SDS011;13424;48.424;11.258;2022-07-29T04:30:41;3.15;;;2.38;;
25525;SDS011;13424;48.424;11.258;2022-07-29T04:33:07;5.13;;;3.35;;
25525;SDS011;13424;48.424;11.258;2022-07-29T04:35:35;4.47;;;3.90;;
25525;SDS011;13424;48.424;11.258;2022-07-29T04:38:03;4.50;;;3.97;;
25525;SDS011;13424;48.424;11.258;2022-07-29T04:40:30;4.90;;;4.40;;
25525;SDS011;13424;48.424;11.258;2022-07-29T04:46:54;4.88;;;4.22;;
25525;SDS011;13424;48.424;11.258;2022-07-29T04:49:20;8.60;;;3.95;;
25525;SDS011;13424;48.424;11.258;2022-07-29T04:51:46;7.80;;;4.28;;
25525;SDS011;13424;48.424;11.258;2022-07-29T04:54:12;4.30;;;3.90;;
25525;SDS011;13424;48.424;11.258;2022-07-29T04:56:38;4.82;;;4.32;;
25525;SDS011;13424;48.424;11.258;2022-07-29T04:59:04;7.20;;;4.05;;
25525;SDS011;13424;48.424;11.258;2022-07-29T05:01:30;5.07;;;4.55;;
25525;SDS011;13424;48.424;11.258;2022-07-29T05:03:56;5.95;;;5.20;;
25525;SDS011;13424;48.424;11.258;2022-07-29T05:06:22;4.70;;;4.20;;
25525;SDS011;13424;48.424;11.258;2022-07-29T05:08:48;4.63;;;4.22;;
25525;SDS011;13424;48.424;11.258;2022-07-29T05:11:13;9.98;;;5.05;;
25525;SDS011;13424;48.424;11.258;2022-07-29T05:13:39;6.78;;;5.45;;
25525;SDS011;13424;48.424;11.258;2022-07-29T05:16:05;6.38;;;5.43;;
25525;SDS011;13424;48.424;11.258;2022-07-29T05:18:33;5.60;;;4.68;;
25525;SDS011;13424;48.424;11.258;2022-07-29T05:20:59;5.57;;;4.97;;
25525;SDS011;13424;48.424;11.258;2022-07-29T05:23:25;9.02;;;5.28;;
25525;SDS011;13424;48.424;11.258;2022-07-29T05:25:52;6.53;;;4.75;;
25525;SDS011;13424;48.424;11.258;2022-07-29T05:28:18;7.43;;;5.43;;
25525;SDS011;13424;48.424;11.258;2022-07-29T05:30:44;8.15;;;5.43;;
25525;SDS011;13424;48.424;11.258;2022-07-29T05:33:10;8.55;;;5.13;;
25525;SDS011;13424;48.424;11.258;2022-07-29T05:35:36;8.05;;;5.60;;
25525;SDS011;13424;48.424;11.258;2022-07-29T05:38:03;6.75;;;5.80;;
25525;SDS011;13424;48.424;11.258;2022-07-29T05:40:29;9.85;;;4.45;;
25525;SDS011;13424;48.424;11.258;2022-07-29T05:42:55;5.10;;;4.28;;
25525;SDS011;13424;48.424;11.258;2022-07-29T05:45:21;5.22;;;3.55;;
25525;SDS011;13424;48.424;11.258;2022-07-29T05:47:49;4.10;;;3.70;;
25525;SDS011;13424;48.424;11.258;2022-07-29T05:50:15;6.15;;;3.97;;
25525;SDS011;13424;48.424;11.258;2022-07-29T05:52:41;5.30;;;3.80;;
25525;SDS011;13424;48.424;11.258;2022-07-29T05:55:07;4.85;;;4.38;;
25525;SDS011;13424;48.424;11.258;2022-07-29T05:57:34;4.22;;;3.83;;
25525;SDS011;13424;48.424;11.258;2022-07-29T06:00:00;7.57;;;4.20;;
25525;SDS011;13424;48.424;11.258;2022-07-29T06:02:26;6.13;;;4.07;;
25525;SDS011;13424;48.424;11.258;2022-07-29T06:04:52;7.03;;;3.83;;
25525;SDS011;13424;48.424;11.258;2022-07-29T06:07:18;4.85;;;3.78;;
25525;SDS011;13424;48.424;11.258;2022-07-29T06:09:44;4.38;;;3.97;;
25525;SDS011;13424;48.424;11.258;2022-07-29T06:12:10;3.42;;;3.13;;
25525;SDS011;13424;48.424;11.258;2022-07-29T06:14:36;6.38;;;3.45;;
25525;SDS011;13424;48.424;11.258;2022-07-29T06:17:04;6.70;;;4.00;;
25525;SDS011;13424;48.424;11.258;2022-07-29T06:19:30;4.28;;;3.30;;
25525;SDS011;13424;48.424;11.258;2022-07-29T06:21:59;3.38;;;3.08;;
25525;SDS011;13424;48.424;11.258;2022-07-29T06:24:24;4.68;;;3.15;;
25525;SDS011;13424;48.424;11.258;2022-07-29T06:26:50;4.38;;;3.05;;
25525;SDS011;13424;48.424;11.258;2022-07-29T06:29:16;8.10;;;3.33;;
25525;SDS011;13424;48.424;11.258;2022-07-29T06:31:42;3.45;;;2.75;;
25525;SDS011;13424;48.424;11.258;2022-07-29T06:34:08;3.58;;;3.20;;
25525;SDS011;13424;48.424;11.258;2022-07-29T06:36:35;5.03;;;3.00;;
25525;SDS011;13424;48.424;11.258;2022-07-29T06:39:06;3.30;;;2.75;;
25525;SDS011;13424;48.424;11.258;2022-07-29T06:41:33;3.50;;;3.20;;
25525;SDS011;13424;48.424;11.258;2022-07-29T06:44:07;4.80;;;3.53;;
25525;SDS011;13424;48.424;11.258;2022-07-29T06:46:34;3.60;;;3.30;;
25525;SDS011;13424;48.424;11.258;2022-07-29T06:49:00;4.70;;;3.47;;
25525;SDS011;13424;48.424;11.258;2022-07-29T06:51:27;4.47;;;3.25;;
25525;SDS011;13424;48.424;11.258;2022-07-29T06:53:53;7.43;;;3.75;;
25525;SDS011;13424;48.424;11.258;2022-07-29T06:56:19;3.47;;;2.85;;
25525;SDS011;13424;48.424;11.258;2022-07-29T06:58:45;3.53;;;3.10;;
25525;SDS011;13424;48.424;11.258;2022-07-29T07:05:12;3.13;;;2.92;;
25525;SDS011;13424;48.424;11.258;2022-07-29T07:07:39;4.10;;;2.95;;
25525;SDS011;13424;48.424;11.258;2022-07-29T07:10:06;7.07;;;2.70;;
25525;SDS011;13424;48.424;11.258;2022-07-29T07:12:33;3.47;;;3.17;;
25525;SDS011;13424;48.424;11.258;2022-07-29T07:14:59;3.08;;;2.78;;
25525;SDS011;13424;48.424;11.258;2022-07-29T07:17:25;5.47;;;3.30;;
25525;SDS011;13424;48.424;11.258;2022-07-29T07:19:51;3.72;;;3.38;;
25525;SDS011;13424;48.424;11.258;2022-07-29T07:22:17;4.57;;;3.20;;
25525;SDS011;13424;48.424;11.258;2022-07-29T07:24:44;4.20;;;3.00;;
25525;SDS011;13424;48.424;11.258;2022-07-29T07:27:10;3.38;;;2.83;;
25525;SDS011;13424;48.424;11.258;2022-07-29T07:29:36;2.67;;;2.45;;
25525;SDS011;13424;48.424;11.258;2022-07-29T07:32:06;4.72;;;2.70;;
25525;SDS011;13424;48.424;11.258;2022-07-29T07:34:34;2.50;;;2.30;;
25525;SDS011;13424;48.424;11.258;2022-07-29T07:37:00;2.22;;;2.03;;
25525;SDS011;13424;48.424;11.258;2022-07-29T07:39:26;4.32;;;2.50;;
25525;SDS011;13424;48.424;11.258;2022-07-29T07:41:52;4.70;;;2.50;;
25525;SDS011;13424;48.424;11.258;2022-07-29T07:44:18;3.60;;;2.50;;
25525;SDS011;13424;48.424;11.258;2022-07-29T07:46:44;3.05;;;2.35;;
25525;SDS011;13424;48.424;11.258;2022-07-29T07:49:10;5.05;;;2.50;;
25525;SDS011;13424;48.424;11.258;2022-07-29T07:51:36;4.45;;;2.15;;
25525;SDS011;13424;48.424;11.258;2022-07-29T07:54:03;5.25;;;2.83;;
25525;SDS011;13424;48.424;11.258;2022-07-29T07:56:29;3.15;;;2.80;;
25525;SDS011;13424;48.424;11.258;2022-07-29T07:58:55;2.83;;;2.25;;
25525;SDS011;13424;48.424;11.258;2022-07-29T08:01:21;2.53;;;2.30;;
25525;SDS011;13424;48.424;11.258;2022-07-29T08:03:49;4.43;;;2.35;;
25525;SDS011;13424;48.424;11.258;2022-07-29T08:06:16;3.10;;;2.20;;
25525;SDS011;13424;48.424;11.258;2022-07-29T08:08:42;4.47;;;2.53;;
25525;SDS011;13424;48.424;11.258;2022-07-29T08:11:08;3.03;;;2.72;;
25525;SDS011;13424;48.424;11.258;2022-07-29T08:13:34;2.38;;;1.77;;
25525;SDS011;13424;48.424;11.258;2022-07-29T08:16:01;3.28;;;2.08;;
25525;SDS011;13424;48.424;11.258;2022-07-29T08:18:37;3.13;;;2.80;;
25525;SDS011;13424;48.424;11.258;2022-07-29T08:21:05;4.22;;;2.65;;
25525;SDS011;13424;48.424;11.258;2022-07-29T08:23:31;4.53;;;2.28;;
25525;SDS011;13424;48.424;11.258;2022-07-29T08:26:06;3.65;;;2.00;;
25525;SDS011;13424;48.424;11.258;2022-07-29T08:31:09;2.45;;;2.25;;
25525;SDS011;13424;48.424;11.258;2022-07-29T08:33:35;4.15;;;2.25;;
25525;SDS011;13424;48.424;11.258;2022-07-29T08:36:01;4.30;;;2.50;;
25525;SDS011;13424;48.424;11.258;2022-07-29T08:38:28;3.10;;;2.72;;
25525;SDS011;13424;48.424;11.258;2022-07-29T08:40:54;3.08;;;2.58;;
25525;SDS011;13424;48.424;11.258;2022-07-29T08:43:20;4.07;;;2.67;;
25525;SDS011;13424;48.424;11.258;2022-07-29T08:45:48;3.53;;;2.60;;
25525;SDS011;13424;48.424;11.258;2022-07-29T08:48:18;3.67;;;2.58;;
25525;SDS011;13424;48.424;11.258;2022-07-29T08:50:48;3.42;;;3.13;;
25525;SDS011;13424;48.424;11.258;2022-07-29T08:53:19;4.22;;;2.30;;
25525;SDS011;13424;48.424;11.258;2022-07-29T08:55:49;3.38;;;2.85;;
25525;SDS011;13424;48.424;11.258;2022-07-29T08:58:17;2.80;;;2.60;;
25525;SDS011;13424;48.424;11.258;2022-07-29T09:00:52;5.38;;;2.55;;
25525;SDS011;13424;48.424;11.258;2022-07-29T09:03:23;3.20;;;2.90;;
25525;SDS011;13424;48.424;11.258;2022-07-29T09:05:52;3.72;;;2.92;;
25525;SDS011;13424;48.424;11.258;2022-07-29T09:08:19;4.82;;;2.53;;
25525;SDS011;13424;48.424;11.258;2022-07-29T09:10:45;4.57;;;3.45;;
25525;SDS011;13424;48.424;11.258;2022-07-29T09:13:11;3.53;;;3.20;;
25525;SDS011;13424;48.424;11.258;2022-07-29T09:15:37;3.85;;;3.55;;
25525;SDS011;13424;48.424;11.258;2022-07-29T09:18:03;3.63;;;3.33;;
25525;SDS011;13424;48.424;11.258;2022-07-29T09:20:29;3.58;;;3.30;;
25525;SDS011;13424;48.424;11.258;2022-07-29T09:23:15;4.28;;;3.88;;
25525;SDS011;13424;48.424;11.258;2022-07-29T09:25:41;4.10;;;3.38;;
25525;SDS011;13424;48.424;11.258;2022-07-29T09:28:15;3.60;;;3.10;;
25525;SDS011;13424;48.424;11.258;2022-07-29T09:30:57;4.18;;;3.75;;
25525;SDS011;13424;48.424;11.258;2022-07-29T09:33:25;5.70;;;3.78;;
25525;SDS011;13424;48.424;11.258;2022-07-29T09:36:09;4.13;;;3.72;;
25525;SDS011;13424;48.424;11.258;2022-07-29T09:38:36;4.38;;;3.95;;
25525;SDS011;13424;48.424;11.258;2022-07-29T09:41:04;4.80;;;3.55;;
25525;SDS011;13424;48.424;11.258;2022-07-29T09:43:31;5.00;;;4.50;;
25525;SDS011;13424;48.424;11.258;2022-07-29T09:46:12;5.47;;;4.68;;
25525;SDS011;13424;48.424;11.258;2022-07-29T09:48:39;6.07;;;4.45;;
25525;SDS011;13424;48.424;11.258;2022-07-29T09:51:05;5.93;;;4.38;;
25525;SDS011;13424;48.424;11.258;2022-07-29T09:53:41;5.90;;;4.57;;
25525;SDS011;13424;48.424;11.258;2022-07-29T09:56:08;6.53;;;4.60;;
25525;SDS011;13424;48.424;11.258;2022-07-29T09:58:35;7.43;;;5.13;;
25525;SDS011;13424;48.424;11.258;2022-07-29T10:01:02;8.45;;;5.82;;
25525;SDS011;13424;48.424;11.258;2022-07-29T10:03:29;5.10;;;4.47;;
25525;SDS011;13424;48.424;11.258;2022-07-29T10:06:24;7.20;;;5.18;;
25525;SDS011;13424;48.424;11.258;2022-07-29T10:08:50;7.70;;;4.88;;
25525;SDS011;13424;48.424;11.258;2022-07-29T10:11:18;7.18;;;5.40;;
25525;SDS011;13424;48.424;11.258;2022-07-29T10:13:46;5.65;;;5.03;;
25525;SDS011;13424;48.424;11.258;2022-07-29T10:16:14;4.97;;;4.10;;
25525;SDS011;13424;48.424;11.258;2022-07-29T10:18:42;5.35;;;4.85;;
25525;SDS011;13424;48.424;11.258;2022-07-29T10:21:09;6.03;;;4.43;;
25525;SDS011;13424;48.424;11.258;2022-07-29T10:23:36;4.78;;;4.03;;
25525;SDS011;13424;48.424;11.258;2022-07-29T10:26:04;4.40;;;4.00;;
25525;SDS011;13424;48.424;11.258;2022-07-29T10:28:31;4.80;;;4.30;;
25525;SDS011;13424;48.424;11.258;2022-07-29T10:31:03;6.43;;;4.10;;
25525;SDS011;13424;48.424;11.258;2022-07-29T10:33:48;4.45;;;4.05;;
25525;SDS011;13424;48.424;11.258;2022-07-29T10:39:58;6.45;;;4.57;;
25525;SDS011;13424;48.424;11.258;2022-07-29T10:43:23;6.32;;;4.10;;
25525;SDS011;13424;48.424;11.258;2022-07-29T10:45:59;4.55;;;4.13;;
25525;SDS011;13424;48.424;11.258;2022-07-29T10:48:25;4.68;;;3.90;;
25525;SDS011;13424;48.424;11.258;2022-07-29T10:51:04;5.35;;;3.95;;
25525;SDS011;13424;48.424;11.258;2022-07-29T10:53:50;4.55;;;4.15;;
25525;SDS011;13424;48.424;11.258;2022-07-29T10:56:29;4.68;;;4.00;;
25525;SDS011;13424;48.424;11.258;2022-07-29T11:01:47;4.78;;;4.38;;
25525;SDS011;13424;48.424;11.258;2022-07-29T11:04:15;5.25;;;4.43;;
25525;SDS011;13424;48.424;11.258;2022-07-29T11:09:34;6.13;;;4.28;;
25525;SDS011;13424;48.424;11.258;2022-07-29T11:12:00;5.18;;;4.38;;
25525;SDS011;13424;48.424;11.258;2022-07-29T11:17:24;6.03;;;4.22;;
25525;SDS011;13424;48.424;11.258;2022-07-29T11:19:51;5.05;;;4.57;;
25525;SDS011;13424;48.424;11.258;2022-07-29T11:22:38;6.22;;;4.35;;
25525;SDS011;13424;48.424;11.258;2022-07-29T11:25:17;5.45;;;4.28;;
25525;SDS011;13424;48.424;11.258;2022-07-29T11:27:44;5.73;;;4.03;;
25525;SDS011;13424;48.424;11.258;2022-07-29T11:30:10;5.95;;;4.68;;
25525;SDS011;13424;48.424;11.258;2022-07-29T11:32:39;4.43;;;4.03;;
25525;SDS011;13424;48.424;11.258;2022-07-29T11:35:17;6.43;;;3.80;;
25525;SDS011;13424;48.424;11.258;2022-07-29T11:44:09;4.32;;;3.90;;
25525;SDS011;13424;48.424;11.258;2022-07-29T11:46:46;3.67;;;3.38;;
25525;SDS011;13424;48.424;11.258;2022-07-29T11:49:22;5.10;;;4.20;;
25525;SDS011;13424;48.424;11.258;2022-07-29T11:51:54;4.13;;;3.72;;
25525;SDS011;13424;48.424;11.258;2022-07-29T11:54:25;5.28;;;3.95;;
25525;SDS011;13424;48.424;11.258;2022-07-29T11:56:59;5.50;;;4.10;;
25525;SDS011;13424;48.424;11.258;2022-07-29T11:59:26;5.20;;;3.40;;
25525;SDS011;13424;48.424;11.258;2022-07-29T12:01:53;3.95;;;3.30;;
25525;SDS011;13424;48.424;11.258;2022-07-29T12:04:20;5.60;;;3.13;;
25525;SDS011;13424;48.424;11.258;2022-07-29T12:06:52;5.50;;;3.50;;
25525;SDS011;13424;48.424;11.258;2022-07-29T12:09:20;3.75;;;3.10;;
25525;SDS011;13424;48.424;11.258;2022-07-29T12:11:49;5.45;;;3.13;;
25525;SDS011;13424;48.424;11.258;2022-07-29T12:14:32;5.05;;;2.95;;
25525;SDS011;13424;48.424;11.258;2022-07-29T12:16:59;4.35;;;3.40;;
25525;SDS011;13424;48.424;11.258;2022-07-29T12:19:26;8.23;;;3.45;;
25525;SDS011;13424;48.424;11.258;2022-07-29T12:21:55;4.15;;;3.10;;
25525;SDS011;13424;48.424;11.258;2022-07-29T12:24:23;4.88;;;3.70;;
25525;SDS011;13424;48.424;11.258;2022-07-29T12:26:54;5.70;;;3.00;;
25525;SDS011;13424;48.424;11.258;2022-07-29T12:29:23;3.60;;;3.30;;
25525;SDS011;13424;48.424;11.258;2022-07-29T12:31:53;5.47;;;3.80;;
25525;SDS011;13424;48.424;11.258;2022-07-29T12:37:49;5.50;;;3.33;;
25525;SDS011;13424;48.424;11.258;2022-07-29T12:40:18;6.72;;;3.88;;
25525;SDS011;13424;48.424;11.258;2022-07-29T12:43:24;4.22;;;3.80;;
25525;SDS011;13424;48.424;11.258;2022-07-29T12:45:52;5.35;;;3.75;;
25525;SDS011;13424;48.424;11.258;2022-07-29T12:48:36;3.67;;;2.92;;
25525;SDS011;13424;48.424;11.258;2022-07-29T12:51:06;4.28;;;3.40;;
25525;SDS011;13424;48.424;11.258;2022-07-29T12:53:34;4.35;;;3.25;;
25525;SDS011;13424;48.424;11.258;2022-07-29T12:56:02;7.10;;;3.45;;
25525;SDS011;13424;48.424;11.258;2022-07-29T12:58:37;17.58;;;3.38;;
25525;SDS011;13424;48.424;11.258;2022-07-29T13:01:13;4.15;;;3.25;;
25525;SDS011;13424;48.424;11.258;2022-07-29T13:04:00;4.28;;;3.72;;
25525;SDS011;13424;48.424;11.258;2022-07-29T13:09:03;4.18;;;3.78;;
25525;SDS011;13424;48.424;11.258;2022-07-29T13:17:54;6.47;;;3.15;;
25525;SDS011;13424;48.424;11.258;2022-07-29T13:20:24;11.60;;;3.13;;
25525;SDS011;13424;48.424;11.258;2022-07-29T13:22:59;3.28;;;3.00;;
25525;SDS011;13424;48.424;11.258;2022-07-29T13:25:30;7.22;;;3.63;;
25525;SDS011;13424;48.424;11.258;2022-07-29T13:27:57;4.63;;;2.80;;
25525;SDS011;13424;48.424;11.258;2022-07-29T13:30:25;3.63;;;2.88;;
25525;SDS011;13424;48.424;11.258;2022-07-29T13:32:51;3.50;;;3.10;;
25525;SDS011;13424;48.424;11.258;2022-07-29T13:35:18;3.20;;;2.97;;
25525;SDS011;13424;48.424;11.258;2022-07-29T13:37:45;4.20;;;3.50;;
25525;SDS011;13424;48.424;11.258;2022-07-29T13:40:11;5.28;;;2.90;;
25525;SDS011;13424;48.424;11.258;2022-07-29T13:42:39;4.13;;;3.35;;
25525;SDS011;13424;48.424;11.258;2022-07-29T13:45:07;5.57;;;3.53;;
25525;SDS011;13424;48.424;11.258;2022-07-29T13:47:36;7.13;;;3.58;;
25525;SDS011;13424;48.424;11.258;2022-07-29T13:50:03;5.30;;;3.33;;
25525;SDS011;13424;48.424;11.258;2022-07-29T13:52:32;13.20;;;3.80;;
25525;SDS011;13424;48.424;11.258;2022-07-29T13:54:59;4.85;;;3.58;;
25525;SDS011;13424;48.424;11.258;2022-07-29T13:57:25;9.15;;;3.85;;
25525;SDS011;13424;48.424;11.258;2022-07-29T13:59:52;5.53;;;3.42;;
25525;SDS011;13424;48.424;11.258;2022-07-29T14:02:18;8.30;;;3.38;;
25525;SDS011;13424;48.424;11.258;2022-07-29T14:04:44;5.95;;;3.00;;
25525;SDS011;13424;48.424;11.258;2022-07-29T14:07:10;8.65;;;3.70;;
25525;SDS011;13424;48.424;11.258;2022-07-29T14:09:36;4.40;;;3.63;;
25525;SDS011;13424;48.424;11.258;2022-07-29T14:12:02;14.82;;;3.80;;
25525;SDS011;13424;48.424;11.258;2022-07-29T14:14:28;31.75;;;5.07;;
25525;SDS011;13424;48.424;11.258;2022-07-29T14:16:56;8.10;;;3.55;;
25525;SDS011;13424;48.424;11.258;2022-07-29T14:19:23;15.25;;;3.70;;
25525;SDS011;13424;48.424;11.258;2022-07-29T14:21:49;8.60;;;4.25;;
25525;SDS011;13424;48.424;11.258;2022-07-29T14:24:15;20.48;;;3.67;;
25525;SDS011;13424;48.424;11.258;2022-07-29T14:26:41;9.13;;;3.92;;
25525;SDS011;13424;48.424;11.258;2022-07-29T14:29:07;13.88;;;5.07;;
25525;SDS011;13424;48.424;11.258;2022-07-29T14:31:33;7.32;;;3.95;;
25525;SDS011;13424;48.424;11.258;2022-07-29T14:33:59;8.93;;;3.85;;
25525;SDS011;13424;48.424;11.258;2022-07-29T14:36:25;4.40;;;3.60;;
25525;SDS011;13424;48.424;11.258;2022-07-29T14:38:52;3.95;;;3.60;;
25525;SDS011;13424;48.424;11.258;2022-07-29T14:41:18;6.68;;;3.70;;
25525;SDS011;13424;48.424;11.258;2022-07-29T14:43:44;7.80;;;3.67;;
25525;SDS011;13424;48.424;11.258;2022-07-29T14:46:10;37.17;;;4.90;;
25525;SDS011;13424;48.424;11.258;2022-07-29T14:48:36;6.65;;;3.53;;
25525;SDS011;13424;48.424;11.258;2022-07-29T14:51:03;6.68;;;3.22;;
25525;SDS011;13424;48.424;11.258;2022-07-29T14:53:32;3.45;;;3.08;;
25525;SDS011;13424;48.424;11.258;2022-07-29T14:55:58;7.38;;;3.25;;
25525;SDS011;13424;48.424;11.258;2022-07-29T14:58:25;3.95;;;3.30;;
25525;SDS011;13424;48.424;11.258;2022-07-29T15:00:50;6.78;;;3.00;;
25525;SDS011;13424;48.424;11.258;2022-07-29T15:03:20;3.35;;;3.05;;
25525;SDS011;13424;48.424;11.258;2022-07-29T15:05:47;3.22;;;2.47;;
25525;SDS011;13424;48.424;11.258;2022-07-29T15:08:13;5.90;;;2.88;;
25525;SDS011;13424;48.424;11.258;2022-07-29T15:10:39;3.35;;;3.10;;
25525;SDS011;13424;48.424;11.258;2022-07-29T15:13:05;4.15;;;3.20;;
25525;SDS011;13424;48.424;11.258;2022-07-29T15:15:31;3.45;;;3.15;;
25525;SDS011;13424;48.424;11.258;2022-07-29T15:17:57;3.45;;;3.15;;
25525;SDS011;13424;48.424;11.258;2022-07-29T15:20:23;4.47;;;3.55;;
25525;SDS011;13424;48.424;11.258;2022-07-29T15:22:50;3.30;;;3.00;;
25525;SDS011;13424;48.424;11.258;2022-07-29T15:25:16;4.30;;;2.80;;
25525;SDS011;13424;48.424;11.258;2022-07-29T15:27:42;3.17;;;2.88;;
25525;SDS011;13424;48.424;11.258;2022-07-29T15:30:09;6.72;;;3.13;;
25525;SDS011;13424;48.424;11.258;2022-07-29T15:32:36;4.60;;;3.40;;
25525;SDS011;13424;48.424;11.258;2022-07-29T15:35:02;4.28;;;3.00;;
25525;SDS011;13424;48.424;11.258;2022-07-29T15:37:28;3.63;;;3.05;;
25525;SDS011;13424;48.424;11.258;2022-07-29T15:39:55;3.13;;;2.83;;
25525;SDS011;13424;48.424;11.258;2022-07-29T15:42:21;4.70;;;3.20;;
25525;SDS011;13424;48.424;11.258;2022-07-29T15:44:47;4.65;;;3.03;;
25525;SDS011;13424;48.424;11.258;2022-07-29T15:47:12;9.02;;;2.97;;
25525;SDS011;13424;48.424;11.258;2022-07-29T15:49:39;3.92;;;2.85;;
25525;SDS011;13424;48.424;11.258;2022-07-29T15:52:08;4.78;;;3.00;;
25525;SDS011;13424;48.424;11.258;2022-07-29T15:54:37;3.40;;;3.10;;